Time;durP1;ratioP1;P1;durP2;ratioP2;P2;SDS_P1;SDS_P2;PMS_P1;PMS_P2;Temp;Humidity;BMP_temperature;BMP_pressure;BME280_temperature;BME280_humidity;BME280_pressure;Samples;Min_cycle;Max_cycle;Signal;HPM_P1;HPM_P2
2023/02/08 00:01:22;;;;;;;78.97;13.52;;;-0.90;93.40;;;;;;5021539;28;20431;-85
2023/02/08 00:03:48;;;;;;;75.45;14.30;;;-0.90;92.50;;;;;;5003945;28;20170;-84
2023/02/08 00:06:14;;;;;;;77.43;12.77;;;-0.90;91.60;;;;;;5003461;28;20193;-85
2023/02/08 00:08:40;;;;;;;80.95;14.23;;;-0.80;91.00;;;;;;5019907;28;20488;-85
2023/02/08 00:11:09;;;;;;;80.50;14.05;;;-0.80;86.10;;;;;;5003640;28;20186;-85
2023/02/08 00:13:35;;;;;;;79.22;13.05;;;-0.80;85.00;;;;;;5002745;28;20166;-84
2023/02/08 00:16:01;;;;;;;76.85;12.70;;;-0.80;87.40;;;;;;5002960;28;20189;-84
2023/02/08 00:18:27;;;;;;;76.85;13.00;;;-0.80;86.40;;;;;;5003030;28;20169;-84
2023/02/08 00:20:54;;;;;;;77.70;13.30;;;-0.80;83.20;;;;;;5002068;28;20194;-85
2023/02/08 00:23:20;;;;;;;79.93;14.60;;;-0.80;80.00;;;;;;5019726;28;20182;-85
2023/02/08 00:25:46;;;;;;;77.57;12.70;;;-0.80;79.90;;;;;;5020036;28;20196;-85
2023/02/08 00:28:13;;;;;;;77.03;13.63;;;-0.80;77.50;;;;;;5002614;28;20463;-85
2023/02/08 00:30:40;;;;;;;81.35;13.05;;;-0.90;81.00;;;;;;5019613;28;20166;-85
2023/02/08 00:33:05;;;;;;;80.53;14.10;;;-0.90;82.00;;;;;;5002856;28;20166;-85
2023/02/08 00:35:31;;;;;;;78.50;12.77;;;-0.90;81.50;;;;;;5019628;28;20162;-84
2023/02/08 00:37:57;;;;;;;76.10;13.37;;;-0.90;81.90;;;;;;5001929;28;20184;-85
2023/02/08 00:40:23;;;;;;;78.10;13.70;;;-0.90;80.70;;;;;;5001691;28;20412;-84
2023/02/08 00:42:49;;;;;;;73.90;12.40;;;-0.90;83.50;;;;;;5019779;28;20192;-84
2023/02/08 00:45:15;;;;;;;78.77;13.17;;;-0.90;80.30;;;;;;5002038;28;20251;-85
2023/02/08 00:47:41;;;;;;;78.00;13.20;;;-0.90;80.80;;;;;;5002157;28;20403;-84
2023/02/08 00:50:07;;;;;;;83.10;13.53;;;-0.90;80.60;;;;;;5001199;28;20413;-84
2023/02/08 00:52:33;;;;;;;79.85;12.32;;;-0.90;81.50;;;;;;5002390;28;20185;-84
2023/02/08 00:54:59;;;;;;;75.13;13.33;;;-0.90;79.80;;;;;;5019687;28;20166;-84
2023/02/08 00:57:27;;;;;;;78.90;13.70;;;-0.90;79.60;;;;;;5001627;28;20764;-85
2023/02/08 00:59:52;;;;;;;79.07;13.40;;;-0.90;76.40;;;;;;5001311;28;20772;-85
2023/02/08 01:02:18;;;;;;;75.10;11.43;;;-1.00;74.40;;;;;;5001062;28;20190;-84
2023/02/08 01:04:44;;;;;;;78.50;12.87;;;-1.00;75.50;;;;;;5019188;28;20165;-84
2023/02/08 01:07:09;;;;;;;78.80;12.50;;;-1.00;79.00;;;;;;5001389;28;20257;-84
2023/02/08 01:09:35;;;;;;;77.17;13.13;;;-1.00;80.80;;;;;;5019181;28;20240;-84
2023/02/08 01:12:01;;;;;;;78.60;12.97;;;-1.00;78.20;;;;;;5000929;28;20216;-85
2023/02/08 01:14:27;;;;;;;79.63;14.45;;;-0.90;74.70;;;;;;5001301;28;20174;-84
2023/02/08 01:16:53;;;;;;;77.45;13.00;;;-0.90;74.10;;;;;;5000864;28;20645;-84
2023/02/08 01:19:19;;;;;;;78.27;12.03;;;-0.80;70.60;;;;;;5018560;28;20174;-84
2023/02/08 01:21:47;;;;;;;77.67;12.80;;;-0.90;64.70;;;;;;5018744;28;20221;-85
2023/02/08 01:24:13;;;;;;;78.95;12.68;;;-0.90;64.00;;;;;;5001448;28;20416;-84
2023/02/08 01:26:41;;;;;;;76.50;13.05;;;-0.90;65.70;;;;;;5000808;28;20210;-84
2023/02/08 01:29:07;;;;;;;79.17;13.53;;;-0.90;65.00;;;;;;5018017;28;20169;-85
2023/02/08 01:31:36;;;;;;;79.57;13.40;;;-0.90;64.90;;;;;;5018748;28;20269;-84
2023/02/08 01:34:03;;;;;;;78.45;14.38;;;-0.90;61.90;;;;;;5000491;28;20173;-84
2023/02/08 01:36:31;;;;;;;76.88;13.90;;;-1.00;59.10;;;;;;5018642;28;20169;-84
2023/02/08 01:38:57;;;;;;;75.55;12.23;;;-1.00;64.50;;;;;;5000625;28;20170;-84
2023/02/08 01:41:36;;;;;;;84.60;14.70;;;-1.00;65.80;;;;;;5000686;28;20275;-85
2023/02/08 01:44:10;;;;;;;83.70;13.15;;;-1.00;66.80;;;;;;5018307;28;20386;-84
2023/02/08 01:46:37;;;;;;;78.72;13.18;;;-1.00;65.00;;;;;;5018067;28;20272;-84
2023/02/08 01:49:17;;;;;;;80.18;13.80;;;-1.00;70.80;;;;;;5018135;28;20177;-84
2023/02/08 01:52:00;;;;;;;80.30;14.45;;;-1.00;71.20;;;;;;5018806;28;20676;-85
2023/02/08 01:54:34;;;;;;;78.28;12.98;;;-1.00;72.20;;;;;;5018681;28;20153;-84
2023/02/08 01:57:00;;;;;;;79.30;13.20;;;-1.00;76.50;;;;;;5018493;28;20602;-84
2023/02/08 01:59:39;;;;;;;85.07;14.48;;;-1.00;78.20;;;;;;5017991;28;20240;-84
2023/02/08 02:02:09;;;;;;;79.38;14.07;;;-1.00;80.80;;;;;;5016883;28;20188;-85
2023/02/08 02:04:34;;;;;;;77.88;13.43;;;-1.00;82.30;;;;;;5017906;28;20219;-85
2023/02/08 02:07:02;;;;;;;83.13;15.77;;;-1.10;82.20;;;;;;5017985;28;20669;-84
2023/02/08 02:09:37;;;;;;;77.70;13.10;;;-1.10;84.20;;;;;;5000423;28;20232;-84
2023/02/08 02:12:03;;;;;;;80.00;14.52;;;-1.10;86.50;;;;;;5000206;28;20189;-84
2023/02/08 02:14:29;;;;;;;77.15;13.55;;;-1.10;88.60;;;;;;5000280;28;20637;-84
2023/02/08 02:16:59;;;;;;;76.77;14.40;;;-1.20;88.80;;;;;;5001290;28;20212;-84
2023/02/08 02:19:46;;;;;;;81.70;14.82;;;-1.20;91.10;;;;;;5018165;28;20792;-84
2023/02/08 02:22:18;;;;;;;79.30;14.50;;;-1.20;90.90;;;;;;5000282;28;20291;-84
2023/02/08 02:25:15;;;;;;;75.18;13.40;;;-1.20;93.00;;;;;;5001029;28;20177;-84
2023/02/08 02:27:50;;;;;;;78.38;14.40;;;-1.30;93.60;;;;;;5018359;28;20165;-84
2023/02/08 02:30:50;;;;;;;79.13;13.52;;;-1.30;92.90;;;;;;5018692;28;20236;-84
2023/02/08 02:33:24;;;;;;;78.95;13.15;;;-1.30;91.70;;;;;;5000144;28;20162;-84
2023/02/08 02:36:18;;;;;;;80.68;14.00;;;-1.40;91.80;;;;;;5017642;28;20169;-85
2023/02/08 02:39:04;;;;;;;78.65;13.95;;;-1.40;93.40;;;;;;4999668;28;20629;-84
2023/02/08 02:44:40;;;;;;;77.07;14.05;;;-1.40;94.60;;;;;;5017977;28;20698;-84
2023/02/08 02:47:29;;;;;;;77.38;14.23;;;-1.40;92.30;;;;;;4999752;28;20189;-84
2023/02/08 02:50:03;;;;;;;81.30;15.07;;;-1.50;93.30;;;;;;5000282;28;20705;-84
2023/02/08 02:52:38;;;;;;;82.57;14.88;;;-1.50;95.50;;;;;;5017841;28;20217;-84
2023/02/08 02:55:10;;;;;;;83.72;14.52;;;-1.50;96.70;;;;;;5000167;28;20528;-84
2023/02/08 02:57:40;;;;;;;77.60;15.02;;;-1.60;95.80;;;;;;5000041;28;20161;-84
2023/02/08 03:00:10;;;;;;;76.78;14.32;;;-1.60;99.10;;;;;;5018216;28;20174;-84
2023/02/08 03:02:36;;;;;;;77.90;14.38;;;-1.70;99.00;;;;;;5017774;28;20182;-84
2023/02/08 03:05:04;;;;;;;77.83;14.20;;;-1.70;99.00;;;;;;5017569;28;20511;-84
2023/02/08 03:07:54;;;;;;;79.90;14.35;;;-1.70;99.90;;;;;;5017844;28;20912;-84
2023/02/08 03:10:26;;;;;;;76.70;14.57;;;-1.70;96.20;;;;;;5018323;28;20155;-84
2023/02/08 03:13:11;;;;;;;81.80;16.20;;;-1.80;97.40;;;;;;5002598;28;20168;-84
2023/02/08 03:16:23;;;;;;;78.53;14.50;;;-1.80;98.30;;;;;;5005325;28;20763;-84
2023/02/08 03:19:04;;;;;;;76.50;14.30;;;-1.80;99.90;;;;;;5017533;28;20189;-84
2023/02/08 03:22:10;;;;;;;75.78;14.07;;;-1.90;97.70;;;;;;5020667;28;20209;-84
2023/02/08 03:24:53;;;;;;;75.65;13.45;;;-1.90;98.90;;;;;;5021765;28;20227;-84
2023/02/08 03:27:33;;;;;;;77.63;14.75;;;-2.00;99.90;;;;;;5021185;28;20181;-84
2023/02/08 03:30:11;;;;;;;79.80;15.25;;;-1.90;99.90;;;;;;5003569;28;20569;-84
2023/02/08 03:32:42;;;;;;;81.82;16.67;;;-2.00;99.90;;;;;;5021176;28;20177;-84
2023/02/08 03:35:14;;;;;;;90.32;16.35;;;-2.00;99.90;;;;;;5003712;28;20162;-84
2023/02/08 03:40:50;;;;;;;79.20;16.30;;;-2.00;99.90;;;;;;4860002;26;20240;-85
2023/02/08 03:43:31;;;;;;;81.22;18.45;;;-2.00;99.90;;;;;;5014518;28;20161;-85
2023/02/08 03:46:21;;;;;;;78.38;17.63;;;-2.00;99.90;;;;;;5032028;28;20177;-85
2023/02/08 03:48:53;;;;;;;78.13;17.33;;;-2.00;99.90;;;;;;5019935;28;20189;-85
2023/02/08 03:51:23;;;;;;;82.38;18.25;;;-2.00;99.90;;;;;;5014350;28;20259;-82
2023/02/08 03:53:52;;;;;;;81.97;17.73;;;-2.00;99.90;;;;;;5031939;28;20173;-82
2023/02/08 03:56:34;;;;;;;80.07;20.38;;;-2.10;99.90;;;;;;5031427;28;20165;-82
2023/02/08 03:59:11;;;;;;;80.00;17.60;;;-2.10;99.90;;;;;;5031547;28;20162;-82
2023/02/08 04:01:56;;;;;;;81.07;16.20;;;-2.00;99.90;;;;;;5031645;28;20244;-85
2023/02/08 04:04:25;;;;;;;79.03;18.88;;;-2.00;99.90;;;;;;5031518;28;20154;-85
2023/02/08 04:06:50;;;;;;;82.47;18.80;;;-1.90;99.90;;;;;;5014428;28;20200;-85
2023/02/08 04:09:16;;;;;;;81.70;19.17;;;-1.90;99.90;;;;;;5031083;28;20170;-84
2023/02/08 04:11:42;;;;;;;86.47;18.73;;;-1.90;99.90;;;;;;5013863;28;20464;-82
2023/02/08 04:14:07;;;;;;;80.50;20.47;;;-1.90;99.90;;;;;;5031300;28;20173;-83
2023/02/08 04:16:33;;;;;;;84.50;18.80;;;-2.00;99.90;;;;;;5013831;28;20177;-83
2023/02/08 04:18:59;;;;;;;90.43;22.90;;;-1.90;99.90;;;;;;5031558;28;20166;-85
2023/02/08 04:21:25;;;;;;;79.57;18.10;;;-1.90;99.90;;;;;;5031116;28;20197;-85
2023/02/08 04:23:51;;;;;;;80.78;19.48;;;-1.90;99.90;;;;;;5013806;28;20571;-85
2023/02/08 04:26:17;;;;;;;79.97;18.77;;;-1.80;99.90;;;;;;5030998;28;20209;-85
2023/02/08 04:28:43;;;;;;;83.53;19.73;;;-1.80;99.90;;;;;;5031475;28;20205;-85
2023/02/08 04:31:08;;;;;;;83.50;19.80;;;-1.80;99.90;;;;;;5013626;28;20193;-85
2023/02/08 04:33:34;;;;;;;84.63;20.13;;;-1.80;99.90;;;;;;5031051;28;20169;-83
2023/02/08 04:36:00;;;;;;;83.33;20.63;;;-1.80;99.90;;;;;;5031131;28;20233;-82
2023/02/08 04:38:25;;;;;;;80.40;19.80;;;-1.80;99.90;;;;;;5030820;28;20166;-82
2023/02/08 04:40:51;;;;;;;84.90;20.00;;;-1.80;99.90;;;;;;5031542;28;20196;-82
2023/02/08 04:43:17;;;;;;;83.07;17.07;;;-1.80;99.90;;;;;;5032016;28;20176;-83
2023/02/08 04:45:42;;;;;;;79.80;17.90;;;-1.80;99.90;;;;;;5030775;28;21011;-82
2023/02/08 04:48:08;;;;;;;80.70;17.30;;;-1.80;99.90;;;;;;5030921;28;20170;-83
2023/02/08 04:50:34;;;;;;;83.30;18.73;;;-1.80;99.90;;;;;;5030890;28;20217;-82
2023/02/08 04:53:00;;;;;;;79.97;18.87;;;-1.80;99.90;;;;;;5012833;28;20312;-82
2023/02/08 04:55:26;;;;;;;77.80;17.90;;;-1.90;99.90;;;;;;5013308;28;20475;-82
2023/02/08 04:57:52;;;;;;;80.03;20.17;;;-1.90;99.90;;;;;;5030640;28;20202;-82
2023/02/08 05:00:18;;;;;;;81.68;19.40;;;-1.90;99.90;;;;;;5030301;28;20176;-82
2023/02/08 05:02:44;;;;;;;81.47;19.37;;;-2.00;99.90;;;;;;5030339;28;20553;-82
2023/02/08 05:05:10;;;;;;;81.18;19.83;;;-2.00;99.90;;;;;;5030767;28;20413;-82
2023/02/08 05:07:36;;;;;;;82.63;20.37;;;-2.10;99.90;;;;;;5030082;28;20656;-82
2023/02/08 05:10:03;;;;;;;87.13;21.43;;;-2.10;99.90;;;;;;5031139;28;20496;-85
2023/02/08 05:12:29;;;;;;;83.30;19.00;;;-2.10;99.90;;;;;;5012250;28;20193;-85
2023/02/08 05:14:54;;;;;;;84.13;21.67;;;-2.20;99.90;;;;;;5030441;28;20169;-85
2023/02/08 05:17:20;;;;;;;88.70;22.53;;;-2.20;99.90;;;;;;5012758;28;20193;-85
2023/02/08 05:19:48;;;;;;;80.67;21.43;;;-2.30;99.90;;;;;;5030513;28;20207;-84
2023/02/08 05:22:14;;;;;;;82.57;19.88;;;-2.30;99.90;;;;;;5012092;28;20186;-82
2023/02/08 05:24:40;;;;;;;84.05;21.25;;;-2.20;99.90;;;;;;5012513;28;20170;-84
2023/02/08 05:27:06;;;;;;;82.77;18.03;;;-2.20;99.90;;;;;;5030131;28;20217;-85
2023/02/08 05:29:34;;;;;;;82.30;21.17;;;-2.20;99.90;;;;;;5029891;28;20162;-85
2023/02/08 05:32:00;;;;;;;79.55;21.08;;;-2.20;99.90;;;;;;5030105;28;20209;-85
2023/02/08 05:34:35;;;;;;;84.67;21.47;;;-2.30;99.90;;;;;;5029820;28;20165;-85
2023/02/08 05:37:04;;;;;;;83.28;23.33;;;-2.30;99.90;;;;;;5012949;28;20161;-85
2023/02/08 05:39:33;;;;;;;85.35;21.65;;;-2.40;99.90;;;;;;5029481;28;20178;-85
2023/02/08 05:41:59;;;;;;;80.68;20.33;;;-2.40;99.90;;;;;;5029903;28;20221;-85
2023/02/08 05:44:28;;;;;;;87.37;23.00;;;-2.30;99.90;;;;;;5012180;28;20645;-85
2023/02/08 05:46:55;;;;;;;81.05;20.60;;;-2.20;99.90;;;;;;5029623;28;20600;-85
2023/02/08 05:49:39;;;;;;;;;;;;;;;;;;;;;
2023/02/08 05:52:05;;;;;;;76.80;16.63;;;-2.20;99.90;;;;;;5030019;28;20216;-85
2023/02/08 05:55:03;;;;;;;87.03;21.02;;;-2.20;99.90;;;;;;5012086;28;20241;-85
2023/02/08 05:57:30;;;;;;;83.00;20.02;;;-2.20;99.90;;;;;;5011491;28;20188;-85
2023/02/08 05:59:55;;;;;;;80.45;22.50;;;-2.20;99.90;;;;;;5029223;28;20181;-85
2023/02/08 06:02:24;;;;;;;82.37;19.30;;;-2.20;99.90;;;;;;5029571;28;20190;-85
2023/02/08 06:04:50;;;;;;;83.65;22.55;;;-2.20;99.90;;;;;;5029465;28;20173;-85
2023/02/08 06:07:16;;;;;;;89.00;22.33;;;-2.20;99.90;;;;;;5029209;28;20218;-85
2023/02/08 06:09:41;;;;;;;87.87;21.90;;;-2.20;99.90;;;;;;5011785;28;20447;-85
2023/02/08 06:12:07;;;;;;;83.53;21.90;;;-2.20;99.90;;;;;;5011625;28;20194;-85
2023/02/08 06:14:36;;;;;;;81.77;19.30;;;-2.20;99.90;;;;;;5030791;28;20397;-85
2023/02/08 06:17:04;;;;;;;84.38;20.92;;;-2.20;99.90;;;;;;5014762;28;20419;-85
2023/02/08 06:19:30;;;;;;;84.10;21.65;;;-2.20;99.90;;;;;;5028772;28;20191;-85
2023/02/08 06:21:56;;;;;;;82.70;21.80;;;-2.20;99.90;;;;;;5028929;28;20192;-85
2023/02/08 06:24:22;;;;;;;80.83;22.63;;;-2.20;99.90;;;;;;5010575;28;20444;-84
2023/02/08 06:26:47;;;;;;;82.17;22.17;;;-2.30;99.90;;;;;;5028177;28;20209;-85
2023/02/08 06:29:14;;;;;;;87.87;24.90;;;-2.30;99.90;;;;;;5010747;28;20492;-85
2023/02/08 06:31:40;;;;;;;91.18;22.10;;;-2.20;99.90;;;;;;5025865;28;20189;-85
2023/02/08 06:34:06;;;;;;;84.07;23.60;;;-2.20;99.90;;;;;;5006358;28;20262;-84
2023/02/08 06:36:32;;;;;;;84.07;20.13;;;-2.20;99.90;;;;;;5023942;28;20194;-84
2023/02/08 06:38:58;;;;;;;88.30;24.03;;;-2.30;99.90;;;;;;5023624;28;20268;-84
2023/02/08 06:41:24;;;;;;;84.53;20.10;;;-2.30;99.90;;;;;;5023981;28;20429;-84
2023/02/08 06:43:49;;;;;;;82.60;20.80;;;-2.30;99.90;;;;;;5022941;28;20170;-84
2023/02/08 06:46:15;;;;;;;88.83;23.07;;;-2.30;99.90;;;;;;5023668;28;20185;-84
2023/02/08 06:48:41;;;;;;;84.10;21.00;;;-2.30;99.90;;;;;;5027325;28;20166;-84
2023/02/08 06:51:06;;;;;;;87.17;22.70;;;-2.40;99.90;;;;;;5009846;28;20212;-84
2023/02/08 06:53:32;;;;;;;88.10;23.63;;;-2.40;99.90;;;;;;5009914;28;20197;-84
2023/02/08 06:55:58;;;;;;;93.90;23.70;;;-2.50;99.90;;;;;;5027824;28;20181;-84
2023/02/08 06:58:24;;;;;;;87.23;23.40;;;-2.50;99.90;;;;;;5026845;28;20463;-82
2023/02/08 07:00:50;;;;;;;81.33;19.43;;;-2.40;99.90;;;;;;5026403;28;20508;-82
2023/02/08 07:03:18;;;;;;;97.03;24.60;;;-2.40;99.90;;;;;;5027130;28;20416;-84
2023/02/08 07:05:47;;;;;;;81.50;20.58;;;-2.40;99.90;;;;;;5026570;28;20197;-84
2023/02/08 07:08:13;;;;;;;80.32;20.70;;;-2.40;99.90;;;;;;5026810;28;20197;-84
2023/02/08 07:10:39;;;;;;;87.82;24.15;;;-2.30;99.90;;;;;;5009388;28;20174;-84
2023/02/08 07:13:08;;;;;;;85.60;21.10;;;-2.30;99.90;;;;;;5009817;28;20185;-84
2023/02/08 07:15:34;;;;;;;86.25;23.63;;;-2.20;99.90;;;;;;5029512;28;20400;-84
2023/02/08 07:18:00;;;;;;;82.77;22.90;;;-2.20;99.90;;;;;;5030882;28;20162;-84
2023/02/08 07:20:26;;;;;;;82.70;22.58;;;-2.20;99.90;;;;;;5010543;28;20424;-84
2023/02/08 07:22:55;;;;;;;84.97;21.63;;;-2.20;99.90;;;;;;5027022;28;20166;-84
2023/02/08 07:25:21;;;;;;;86.57;23.20;;;-2.20;99.90;;;;;;5007778;28;20487;-84
2023/02/08 07:27:47;;;;;;;82.50;19.48;;;-2.20;99.90;;;;;;5025427;28;20237;-84
2023/02/08 07:30:13;;;;;;;82.97;20.03;;;-2.10;99.90;;;;;;5024930;28;20214;-84
2023/02/08 07:32:38;;;;;;;87.78;20.73;;;-2.10;99.90;;;;;;5025653;28;20665;-84
2023/02/08 07:35:04;;;;;;;86.57;23.67;;;-2.10;99.90;;;;;;5025411;28;20162;-84
2023/02/08 07:37:33;;;;;;;85.03;22.90;;;-2.00;99.90;;;;;;5025426;28;20162;-84
2023/02/08 07:39:58;;;;;;;88.40;22.15;;;-2.00;99.90;;;;;;5025098;28;20915;-84
2023/02/08 07:42:24;;;;;;;84.37;22.60;;;-1.90;99.90;;;;;;5007448;28;20240;-84
2023/02/08 07:44:50;;;;;;;83.97;21.17;;;-1.90;99.90;;;;;;5024692;28;20162;-84
2023/02/08 07:47:19;;;;;;;83.40;22.37;;;-1.80;99.90;;;;;;5024410;28;20200;-83
2023/02/08 07:49:44;;;;;;;87.80;21.77;;;-1.80;99.90;;;;;;5007054;28;20196;-83
2023/02/08 07:52:10;;;;;;;78.60;22.13;;;-1.70;99.90;;;;;;5025871;28;20588;-84
2023/02/08 07:54:36;;;;;;;80.47;23.20;;;-1.70;99.90;;;;;;5028182;28;20216;-82
2023/02/08 07:57:01;;;;;;;83.20;20.53;;;-1.70;99.90;;;;;;5027052;28;20166;-81
2023/02/08 07:59:27;;;;;;;81.70;23.00;;;-1.70;99.90;;;;;;5026195;28;20181;-82
2023/02/08 08:01:53;;;;;;;83.13;22.70;;;-1.70;99.90;;;;;;5028460;28;20189;-83
2023/02/08 08:04:20;;;;;;;82.87;20.77;;;-1.70;99.90;;;;;;5028963;28;20166;-84
2023/02/08 08:06:46;;;;;;;80.20;20.70;;;-1.60;99.90;;;;;;5011182;28;20197;-83
2023/02/08 08:09:14;;;;;;;88.55;21.55;;;-1.60;99.90;;;;;;5014778;28;20166;-84
2023/02/08 08:11:39;;;;;;;80.13;19.48;;;-1.60;99.90;;;;;;5031367;28;20184;-84
2023/02/08 08:14:05;;;;;;;89.03;20.00;;;-1.60;99.90;;;;;;5009931;28;20268;-82
2023/02/08 08:16:31;;;;;;;83.10;21.40;;;-1.50;99.90;;;;;;5029289;28;20522;-81
2023/02/08 08:18:57;;;;;;;88.10;20.60;;;-1.40;99.90;;;;;;5029743;28;20234;-83
2023/02/08 08:21:22;;;;;;;84.07;18.43;;;-1.40;99.90;;;;;;5028652;28;20559;-83
2023/02/08 08:23:48;;;;;;;81.57;17.77;;;-1.40;99.90;;;;;;5012108;28;20416;-83
2023/02/08 08:26:19;;;;;;;76.87;14.27;;;-1.40;99.90;;;;;;5030767;28;20196;-83
2023/02/08 08:28:45;;;;;;;78.90;17.27;;;-1.30;99.90;;;;;;5012877;28;20170;-83
2023/02/08 08:31:14;;;;;;;83.10;19.02;;;-1.30;99.90;;;;;;5030126;28;20185;-83
2023/02/08 08:33:39;;;;;;;89.13;18.55;;;-1.30;99.90;;;;;;5030273;28;20166;-83
2023/02/08 08:36:06;;;;;;;83.17;16.20;;;-1.20;99.90;;;;;;5029838;28;20181;-83
2023/02/08 08:38:31;;;;;;;79.03;14.75;;;-1.20;99.90;;;;;;5030108;28;20165;-81
2023/02/08 08:40:57;;;;;;;76.90;13.50;;;-1.20;99.90;;;;;;5013101;28;20225;-80
2023/02/08 08:43:23;;;;;;;82.00;15.43;;;-1.10;99.90;;;;;;5030516;28;20468;-80
2023/02/08 08:45:49;;;;;;;81.27;14.63;;;-1.10;99.90;;;;;;5029990;28;20198;-80
2023/02/08 08:48:14;;;;;;;83.93;15.40;;;-1.10;99.90;;;;;;5012643;28;20170;-80
2023/02/08 08:50:41;;;;;;;80.33;14.37;;;-1.10;99.90;;;;;;5030619;28;20176;-80
2023/02/08 08:53:08;;;;;;;82.65;14.85;;;-1.00;99.90;;;;;;5012888;28;20248;-80
2023/02/08 08:55:34;;;;;;;79.15;14.25;;;-0.90;98.90;;;;;;5030377;28;20166;-81
2023/02/08 08:57:59;;;;;;;81.70;17.53;;;-0.90;97.30;;;;;;5031113;28;20162;-80
2023/02/08 09:00:26;;;;;;;84.77;15.17;;;-0.90;95.60;;;;;;5031795;28;20199;-81
2023/02/08 09:02:51;;;;;;;78.25;14.13;;;-0.80;95.70;;;;;;5012625;28;20166;-79
2023/02/08 09:05:17;;;;;;;81.20;14.47;;;-0.70;92.50;;;;;;5030683;28;20190;-80
2023/02/08 09:07:43;;;;;;;78.60;15.80;;;-0.70;92.50;;;;;;5030044;28;20409;-79
2023/02/08 09:10:08;;;;;;;77.37;14.03;;;-0.60;88.90;;;;;;5029986;28;20166;-80
2023/02/08 09:12:34;;;;;;;76.63;13.03;;;-0.50;69.80;;;;;;5030507;28;20190;-79
2023/02/08 09:15:00;;;;;;;77.40;14.03;;;-0.40;59.20;;;;;;5031435;28;20253;-80
2023/02/08 09:17:25;;;;;;;78.63;12.53;;;-0.30;50.70;;;;;;5013722;28;20166;-79
2023/02/08 09:19:51;;;;;;;74.30;12.37;;;-0.20;40.20;;;;;;5031281;28;20315;-80
2023/02/08 09:22:18;;;;;;;77.13;12.17;;;-0.10;29.80;;;;;;5030347;28;20439;-81
2023/02/08 09:24:44;;;;;;;80.63;12.27;;;0.00;33.10;;;;;;5031711;28;20154;-81
2023/02/08 09:27:10;;;;;;;78.20;12.77;;;0.00;25.70;;;;;;5014046;28;20224;-80
2023/02/08 09:29:35;;;;;;;80.17;12.37;;;0.20;21.30;;;;;;5030637;28;20389;-80
2023/02/08 09:32:02;;;;;;;75.40;10.40;;;0.20;20.00;;;;;;5029936;28;20182;-79
2023/02/08 09:34:27;;;;;;;80.00;13.35;;;0.30;14.80;;;;;;5012983;28;20766;-79
2023/02/08 09:36:53;;;;;;;76.60;12.00;;;0.40;13.60;;;;;;5029565;28;20177;-80
2023/02/08 09:39:22;;;;;;;79.60;12.93;;;0.50;9.60;;;;;;5029284;28;20447;-79
2023/02/08 09:42:25;;;;;;;79.80;11.50;;;0.60;6.50;;;;;;5075196;22;20500;-83
2023/02/08 09:45:15;;;;;;;74.75;11.45;;;0.60;5.20;;;;;;4980364;28;20162;-83
2023/02/08 09:47:49;;;;;;;76.30;11.70;;;0.70;5.10;;;;;;4998218;28;20155;-83
2023/02/08 09:50:15;;;;;;;77.00;11.35;;;0.80;1.00;;;;;;4998328;28;20566;-83
2023/02/08 09:52:48;;;;;;;74.23;10.40;;;0.90;1.00;;;;;;4998449;28;20189;-83
2023/02/08 09:55:38;;;;;;;74.00;11.65;;;0.90;1.00;;;;;;4998302;28;20189;-83
2023/02/08 09:58:19;;;;;;;76.82;11.65;;;1.00;1.00;;;;;;4980836;28;20162;-82
2023/02/08 10:00:49;;;;;;;75.88;12.45;;;1.10;1.00;;;;;;4997707;28;20583;-83
2023/02/08 10:03:26;;;;;;;76.47;11.98;;;1.20;1.00;;;;;;4980623;28;20216;-83
2023/02/08 10:05:51;;;;;;;80.53;12.07;;;1.30;1.00;;;;;;4980572;28;20190;-82
2023/02/08 10:08:17;;;;;;;76.33;11.53;;;1.30;1.00;;;;;;4980611;28;20189;-83
2023/02/08 10:10:45;;;;;;;73.83;10.87;;;1.40;1.00;;;;;;4998088;28;20190;-83
2023/02/08 10:13:45;;;;;;;74.70;11.48;;;1.50;1.00;;;;;;4981036;28;20167;-83
2023/02/08 10:16:35;;;;;;;76.25;10.88;;;1.60;1.00;;;;;;4954578;28;20189;-84
2023/02/08 10:19:19;;;;;;;73.38;10.55;;;1.70;1.00;;;;;;4997506;28;20178;-83
2023/02/08 10:22:05;;;;;;;77.25;9.95;;;1.90;1.00;;;;;;4981073;28;20197;-83
2023/02/08 10:25:01;;;;;;;72.43;10.30;;;2.00;1.00;;;;;;5002828;28;20162;-83
2023/02/08 10:27:45;;;;;;;73.10;11.10;;;2.10;1.00;;;;;;5002566;28;20534;-83
2023/02/08 10:30:39;;;;;;;76.60;11.90;;;2.20;1.00;;;;;;5002433;28;20166;-84
2023/02/08 10:33:17;;;;;;;74.75;10.25;;;2.40;1.00;;;;;;4984569;28;20232;-83
2023/02/08 10:35:48;;;;;;;75.10;10.65;;;2.50;1.00;;;;;;5002148;28;20174;-83
2023/02/08 10:38:20;;;;;;;75.50;10.45;;;2.60;1.00;;;;;;5002360;28;20217;-83
2023/02/08 10:40:56;;;;;;;72.90;10.18;;;2.70;1.00;;;;;;5001674;28;20206;-84
2023/02/08 10:43:34;;;;;;;76.43;11.88;;;2.90;1.00;;;;;;4983909;28;20565;-84
2023/02/08 10:46:28;;;;;;;74.47;10.68;;;3.00;1.00;;;;;;5001316;28;20170;-83
2023/02/08 10:48:58;;;;;;;90.22;12.40;;;3.00;1.00;;;;;;5001306;28;20577;-83
2023/02/08 10:51:25;;;;;;;73.80;10.68;;;3.00;1.00;;;;;;4983976;28;20232;-83
2023/02/08 10:53:52;;;;;;;73.63;9.88;;;3.10;1.00;;;;;;5000685;28;20167;-83
2023/02/08 10:56:39;;;;;;;72.65;9.63;;;3.10;1.00;;;;;;5001621;28;20177;-83
2023/02/08 10:59:21;;;;;;;74.57;9.85;;;3.30;1.00;;;;;;4983262;28;20163;-83
2023/02/08 11:01:48;;;;;;;73.00;10.93;;;3.40;1.00;;;;;;5001270;28;20303;-83
2023/02/08 11:04:15;;;;;;;75.45;11.60;;;3.50;1.00;;;;;;5001561;28;20197;-83
2023/02/08 11:06:43;;;;;;;71.97;11.23;;;3.50;1.00;;;;;;5001386;28;20182;-84
2023/02/08 11:09:27;;;;;;;74.13;9.77;;;3.50;1.00;;;;;;4983529;28;20170;-83
2023/02/08 11:11:54;;;;;;;74.68;11.65;;;3.60;1.00;;;;;;5000972;28;20294;-83
2023/02/08 11:14:26;;;;;;;73.68;9.60;;;3.60;1.00;;;;;;5001972;28;20163;-83
2023/02/08 11:16:54;;;;;;;73.50;10.70;;;3.70;1.00;;;;;;5002564;28;20166;-83
2023/02/08 11:19:32;;;;;;;79.85;9.73;;;3.70;1.00;;;;;;5001680;28;20178;-83
2023/02/08 11:22:00;;;;;;;72.55;10.88;;;3.90;1.00;;;;;;4984119;28;20225;-83
2023/02/08 11:24:49;;;;;;;77.47;10.07;;;4.00;1.00;;;;;;5001524;28;20170;-83
2023/02/08 11:27:35;;;;;;;78.13;11.70;;;4.00;1.00;;;;;;4983500;28;20217;-83
2023/02/08 11:30:23;;;;;;;73.97;11.20;;;4.00;1.00;;;;;;5000866;28;20622;-84
2023/02/08 11:33:13;;;;;;;71.47;9.25;;;4.20;1.00;;;;;;5000372;28;20541;-83
2023/02/08 11:35:40;;;;;;;79.18;9.85;;;4.30;1.00;;;;;;5000366;28;20162;-83
2023/02/08 11:38:15;;;;;;;73.32;10.32;;;4.30;1.00;;;;;;5000171;28;20170;-83
2023/02/08 11:40:43;;;;;;;73.38;10.18;;;4.30;1.00;;;;;;5000599;28;20213;-83
2023/02/08 11:43:22;;;;;;;70.75;8.90;;;4.40;1.00;;;;;;5000225;28;20163;-83
2023/02/08 11:49:31;;;;;;;75.60;10.35;;;4.60;1.00;;;;;;4978432;28;20178;-83
2023/02/08 11:51:57;;;;;;;72.40;9.27;;;4.60;1.00;;;;;;5000334;28;20187;-83
2023/02/08 11:54:40;;;;;;;73.50;8.43;;;4.70;1.00;;;;;;5000407;28;20167;-83
2023/02/08 11:57:20;;;;;;;78.00;10.43;;;4.80;1.00;;;;;;4982533;28;20472;-83
2023/02/08 12:00:21;;;;;;;73.45;9.20;;;4.80;1.00;;;;;;4982907;28;20166;-83
2023/02/08 12:02:49;;;;;;;72.78;9.35;;;5.00;1.00;;;;;;4999882;28;20617;-83
2023/02/08 12:05:29;;;;;;;71.70;10.60;;;5.10;1.00;;;;;;4982400;28;20228;-83
2023/02/08 12:08:03;;;;;;;74.63;10.25;;;5.30;1.00;;;;;;4999473;28;20178;-83
2023/02/08 12:10:49;;;;;;;72.13;9.45;;;5.30;1.00;;;;;;5000119;28;20154;-83
2023/02/08 12:13:23;;;;;;;71.43;10.32;;;5.20;1.00;;;;;;5000689;28;20151;-83
2023/02/08 12:16:06;;;;;;;75.45;9.98;;;5.30;1.00;;;;;;4982305;28;20205;-83
2023/02/08 12:18:50;;;;;;;71.63;9.73;;;5.50;1.00;;;;;;4982805;28;20165;-83
2023/02/08 12:21:19;;;;;;;73.85;9.20;;;5.60;1.00;;;;;;5000013;28;20182;-83
2023/02/08 12:23:54;;;;;;;72.20;9.35;;;5.70;1.00;;;;;;4982169;28;20206;-84
2023/02/08 12:27:16;;;;;;;71.35;8.85;;;5.70;1.00;;;;;;4999370;28;20178;-84
2023/02/08 12:30:02;;;;;;;70.90;10.00;;;5.70;1.00;;;;;;4988848;28;20183;-83
2023/02/08 12:33:16;;;;;;;73.07;9.80;;;5.80;1.00;;;;;;4982462;28;20244;-83
2023/02/08 12:36:13;;;;;;;73.57;9.88;;;5.80;1.00;;;;;;4904878;29;20214;-84
2023/02/08 12:42:05;;;;;;;72.60;10.70;;;5.90;1.00;;;;;;4999386;28;20233;-84
2023/02/08 12:44:50;;;;;;;70.75;8.75;;;5.90;1.00;;;;;;4981394;28;20178;-83
2023/02/08 12:47:54;;;;;;;78.07;9.55;;;5.90;1.00;;;;;;4998913;28;20261;-83
2023/02/08 12:50:36;;;;;;;70.10;8.95;;;5.80;1.00;;;;;;4959076;28;20175;-84
2023/02/08 12:53:12;;;;;;;71.47;9.60;;;5.80;1.00;;;;;;4999542;28;20203;-83
2023/02/08 12:55:40;;;;;;;70.35;8.70;;;5.70;1.00;;;;;;4999702;28;20190;-83
2023/02/08 12:58:28;;;;;;;68.60;8.52;;;5.70;1.00;;;;;;5000165;28;20170;-84
2023/02/08 13:01:08;;;;;;;70.55;8.60;;;5.60;1.00;;;;;;4999359;28;20205;-83
2023/02/08 13:03:33;;;;;;;71.20;8.25;;;5.60;1.00;;;;;;4982354;28;20174;-83
2023/02/08 13:06:01;;;;;;;71.80;7.93;;;5.60;1.00;;;;;;4999424;28;20241;-84
2023/02/08 13:08:46;;;;;;;75.30;9.35;;;5.60;1.00;;;;;;4981395;28;20178;-84